Time;durP1;ratioP1;P1;durP2;ratioP2;P2;SDS_P1;SDS_P2;PMS_P1;PMS_P2;Temp;Humidity;BMP_temperature;BMP_pressure;BME280_temperature;BME280_humidity;BME280_pressure;Samples;Min_cycle;Max_cycle;Signal;HPM_P1;HPM_P2
2022/04/29 00:00:54;;;;;;;36.30;25.33;;;;;;;;;;4952895;28;20226;-75
2022/04/29 00:03:22;;;;;;;38.07;24.60;;;;;;;;;;4953488;28;20207;-75
2022/04/29 00:05:50;;;;;;;42.50;26.63;;;;;;;;;;4951526;28;20881;-76
2022/04/29 00:08:17;;;;;;;36.70;25.70;;;;;;;;;;4946326;28;20254;-75
2022/04/29 00:10:44;;;;;;;38.27;25.80;;;;;;;;;;4936531;29;20976;-75
2022/04/29 00:13:13;;;;;;;40.63;25.33;;;;;;;;;;4929428;29;20310;-75
2022/04/29 00:15:42;;;;;;;44.03;26.50;;;;;;;;;;4934726;29;20283;-76
2022/04/29 00:18:09;;;;;;;36.07;25.30;;;;;;;;;;4937435;29;20205;-76
2022/04/29 00:20:38;;;;;;;36.93;26.30;;;;;;;;;;4934904;29;20294;-76
2022/04/29 00:23:05;;;;;;;37.53;26.13;;;;;;;;;;4937288;29;20287;-76
2022/04/29 00:25:32;;;;;;;40.80;27.27;;;;;;;;;;4943823;28;20753;-76
2022/04/29 00:28:00;;;;;;;42.30;25.00;;;;;;;;;;4933780;29;20243;-76
2022/04/29 00:30:27;;;;;;;40.53;26.13;;;;;;;;;;4931474;29;20335;-76
2022/04/29 00:32:55;;;;;;;38.10;26.73;;;;;;;;;;4932809;29;20266;-75
2022/04/29 00:35:24;;;;;;;39.63;25.83;;;;;;;;;;4933181;29;20237;-75
2022/04/29 00:37:52;;;;;;;39.30;25.90;;;;;;;;;;4942377;29;20210;-75
2022/04/29 00:40:20;;;;;;;41.10;26.03;;;;;;;;;;4931329;29;20279;-75
2022/04/29 00:42:47;;;;;;;42.57;25.70;;;;;;;;;;4936846;29;20229;-75
2022/04/29 00:45:15;;;;;;;40.40;26.77;;;;;;;;;;4931683;29;20291;-75
2022/04/29 00:47:42;;;;;;;35.97;25.33;;;;;;;;;;4933807;29;20240;-75
2022/04/29 00:50:11;;;;;;;37.43;25.60;;;;;;;;;;4938317;29;20289;-74
2022/04/29 00:52:40;;;;;;;39.43;25.70;;;;;;;;;;4932663;29;20292;-75
2022/04/29 00:55:09;;;;;;;39.77;26.67;;;;;;;;;;4932973;29;20293;-76
2022/04/29 00:57:39;;;;;;;40.23;25.80;;;;;;;;;;4928598;29;20288;-75
2022/04/29 01:00:09;;;;;;;40.20;26.17;;;;;;;;;;4931589;29;20235;-75
2022/04/29 01:02:39;;;;;;;41.93;26.77;;;;;;;;;;4933910;29;20206;-76
2022/04/29 01:05:07;;;;;;;36.77;24.87;;;;;;;;;;4938851;29;20548;-76
2022/04/29 01:07:36;;;;;;;45.60;26.80;;;;;;;;;;4935138;29;20246;-75
2022/04/29 01:10:04;;;;;;;37.47;26.07;;;;;;;;;;4950340;28;20224;-75
2022/04/29 01:12:32;;;;;;;43.63;28.07;;;;;;;;;;4950539;28;20209;-75
2022/04/29 01:15:00;;;;;;;42.23;27.57;;;;;;;;;;4950353;29;20225;-75
2022/04/29 01:17:29;;;;;;;40.23;26.57;;;;;;;;;;4951509;28;20200;-75
2022/04/29 01:19:56;;;;;;;42.63;26.57;;;;;;;;;;4950194;29;20223;-75
2022/04/29 01:22:25;;;;;;;40.70;26.70;;;;;;;;;;4950388;28;20231;-76
2022/04/29 01:24:52;;;;;;;40.70;26.53;;;;;;;;;;4947897;28;20258;-75
2022/04/29 01:27:19;;;;;;;43.17;26.90;;;;;;;;;;4951197;28;20282;-75
2022/04/29 01:29:47;;;;;;;43.93;27.67;;;;;;;;;;4948185;28;20203;-76
2022/04/29 01:32:14;;;;;;;41.10;27.83;;;;;;;;;;4950028;28;20741;-75
2022/04/29 01:34:41;;;;;;;41.70;27.20;;;;;;;;;;4949246;28;20620;-76
2022/04/29 01:37:08;;;;;;;42.80;27.10;;;;;;;;;;4947492;28;20233;-76
2022/04/29 01:39:37;;;;;;;41.57;27.10;;;;;;;;;;4949445;28;20278;-75
2022/04/29 01:42:05;;;;;;;41.73;28.03;;;;;;;;;;4951954;28;20223;-75
2022/04/29 01:44:32;;;;;;;44.93;28.07;;;;;;;;;;4949381;29;20316;-75
2022/04/29 01:46:59;;;;;;;41.67;27.10;;;;;;;;;;4949121;29;21008;-75
2022/04/29 01:49:27;;;;;;;44.53;27.43;;;;;;;;;;4945656;28;20339;-76
2022/04/29 01:51:56;;;;;;;45.03;26.67;;;;;;;;;;4947623;28;20222;-75
2022/04/29 01:54:23;;;;;;;42.57;27.90;;;;;;;;;;4945673;28;20263;-76
2022/04/29 01:56:52;;;;;;;41.60;26.77;;;;;;;;;;4948723;28;20227;-75
2022/04/29 01:59:20;;;;;;;40.13;27.87;;;;;;;;;;4948065;28;20219;-75
2022/04/29 02:01:47;;;;;;;43.93;29.40;;;;;;;;;;4948099;28;20296;-75
2022/04/29 02:04:14;;;;;;;44.37;27.90;;;;;;;;;;4950382;28;20207;-75
2022/04/29 02:06:42;;;;;;;42.00;28.03;;;;;;;;;;4949021;29;20230;-75
2022/04/29 02:09:10;;;;;;;41.67;28.00;;;;;;;;;;4941795;28;20280;-75
2022/04/29 02:11:37;;;;;;;44.57;28.33;;;;;;;;;;4935885;29;20215;-75
2022/04/29 02:14:06;;;;;;;45.17;26.07;;;;;;;;;;4932120;29;20217;-75
2022/04/29 02:16:33;;;;;;;43.30;28.30;;;;;;;;;;4936079;29;20367;-75
2022/04/29 02:19:00;;;;;;;41.70;27.23;;;;;;;;;;4933655;29;20930;-75
2022/04/29 02:21:27;;;;;;;43.90;28.20;;;;;;;;;;4930751;29;20251;-75
2022/04/29 02:23:55;;;;;;;40.67;28.80;;;;;;;;;;4933540;29;20296;-75
2022/04/29 02:26:22;;;;;;;47.53;29.03;;;;;;;;;;4938424;29;20320;-74
2022/04/29 02:28:49;;;;;;;44.77;28.73;;;;;;;;;;4929590;29;20196;-75
2022/04/29 02:31:18;;;;;;;45.57;28.37;;;;;;;;;;4936541;29;20629;-75
2022/04/29 02:33:45;;;;;;;50.20;28.20;;;;;;;;;;4931447;29;20243;-75
2022/04/29 02:36:12;;;;;;;42.70;28.17;;;;;;;;;;4929097;29;20332;-75
2022/04/29 02:38:40;;;;;;;42.83;28.10;;;;;;;;;;4935636;29;20668;-75
2022/04/29 02:41:07;;;;;;;48.40;28.13;;;;;;;;;;4935637;29;20583;-75
2022/04/29 02:43:35;;;;;;;41.80;28.20;;;;;;;;;;4933155;29;20290;-75
2022/04/29 02:46:02;;;;;;;39.90;26.93;;;;;;;;;;4929446;29;20287;-75
2022/04/29 02:48:31;;;;;;;41.20;28.57;;;;;;;;;;4935346;29;20290;-75
2022/04/29 02:50:58;;;;;;;43.67;28.43;;;;;;;;;;4933984;29;20281;-75
2022/04/29 02:53:25;;;;;;;46.40;29.27;;;;;;;;;;4933575;29;20247;-74
2022/04/29 02:55:53;;;;;;;44.77;28.97;;;;;;;;;;4934990;29;20291;-76
2022/04/29 02:58:20;;;;;;;47.20;28.17;;;;;;;;;;4939321;29;20294;-76
2022/04/29 03:00:47;;;;;;;47.50;28.50;;;;;;;;;;4932257;29;20234;-76
2022/04/29 03:03:14;;;;;;;43.00;29.33;;;;;;;;;;4934169;29;20239;-76
2022/04/29 03:05:43;;;;;;;49.53;28.73;;;;;;;;;;4943004;29;20310;-75
2022/04/29 03:08:10;;;;;;;45.87;29.10;;;;;;;;;;4944074;29;20266;-76
2022/04/29 03:10:38;;;;;;;44.43;29.57;;;;;;;;;;4952626;29;20751;-75
2022/04/29 03:13:06;;;;;;;42.23;29.53;;;;;;;;;;4950324;29;20702;-75
2022/04/29 03:15:33;;;;;;;43.07;28.63;;;;;;;;;;4950528;29;20238;-75
2022/04/29 03:18:20;;;;;;;49.10;29.40;;;;;;;;;;4948654;29;20247;-75
2022/04/29 03:20:49;;;;;;;43.50;27.90;;;;;;;;;;4948711;29;20230;-76
2022/04/29 03:23:16;;;;;;;47.20;27.67;;;;;;;;;;4949537;29;20714;-75
2022/04/29 03:25:44;;;;;;;46.63;29.03;;;;;;;;;;4951951;28;20737;-76
2022/04/29 03:28:11;;;;;;;43.50;28.53;;;;;;;;;;4952533;28;20268;-75
2022/04/29 03:30:38;;;;;;;43.57;28.47;;;;;;;;;;4953567;28;20279;-79
2022/04/29 03:33:06;;;;;;;44.60;29.27;;;;;;;;;;4951235;28;20246;-80
2022/04/29 03:35:39;;;;;;;45.90;28.37;;;;;;;;;;4951352;28;20719;-80
2022/04/29 03:38:07;;;;;;;48.13;29.00;;;;;;;;;;4954199;28;20289;-79
2022/04/29 03:40:35;;;;;;;52.67;29.20;;;;;;;;;;4951997;28;20223;-79
2022/04/29 03:43:02;;;;;;;45.37;29.00;;;;;;;;;;4955018;28;20207;-80
2022/04/29 03:45:29;;;;;;;46.33;28.20;;;;;;;;;;4952719;28;20326;-80
2022/04/29 03:47:56;;;;;;;45.40;28.20;;;;;;;;;;4954004;28;20238;-79
2022/04/29 03:50:25;;;;;;;43.10;27.77;;;;;;;;;;4954066;28;20209;-80
2022/04/29 03:52:53;;;;;;;48.97;28.60;;;;;;;;;;4955597;28;20729;-80
2022/04/29 03:55:22;;;;;;;45.00;27.13;;;;;;;;;;4952773;28;20281;-80
2022/04/29 03:57:49;;;;;;;45.63;27.87;;;;;;;;;;4952315;28;20211;-79
2022/04/29 04:00:16;;;;;;;45.40;28.10;;;;;;;;;;4952167;28;20694;-79
2022/04/29 04:02:44;;;;;;;41.93;27.10;;;;;;;;;;4952957;28;20296;-79
2022/04/29 04:05:11;;;;;;;42.33;27.13;;;;;;;;;;4950495;28;20292;-79
2022/04/29 04:07:38;;;;;;;45.67;28.13;;;;;;;;;;4947722;28;20250;-79
2022/04/29 04:10:06;;;;;;;46.50;28.40;;;;;;;;;;4934548;29;20238;-79
2022/04/29 04:12:41;;;;;;;44.33;28.40;;;;;;;;;;4939629;29;20216;-79
2022/04/29 04:15:09;;;;;;;46.20;28.10;;;;;;;;;;4932212;29;20285;-80
2022/04/29 04:17:37;;;;;;;51.13;28.70;;;;;;;;;;4930532;29;20251;-78
2022/04/29 04:20:04;;;;;;;50.57;29.33;;;;;;;;;;4938388;29;20637;-80
2022/04/29 04:22:32;;;;;;;49.20;29.03;;;;;;;;;;4940043;29;20206;-80
2022/04/29 04:24:59;;;;;;;47.07;29.27;;;;;;;;;;4938467;29;20231;-77
2022/04/29 04:27:27;;;;;;;48.53;29.17;;;;;;;;;;4942605;29;20210;-80
2022/04/29 04:29:55;;;;;;;44.63;28.07;;;;;;;;;;4937621;29;20285;-77
2022/04/29 04:32:22;;;;;;;51.00;30.07;;;;;;;;;;4939264;29;20298;-79
2022/04/29 04:34:53;;;;;;;50.90;29.07;;;;;;;;;;4942084;29;20299;-80
2022/04/29 04:37:20;;;;;;;55.07;29.20;;;;;;;;;;4943349;29;20580;-78
2022/04/29 04:39:48;;;;;;;50.63;29.20;;;;;;;;;;4935585;29;20203;-77
2022/04/29 04:42:15;;;;;;;53.00;29.77;;;;;;;;;;4936054;29;20296;-78
2022/04/29 04:44:42;;;;;;;50.10;29.37;;;;;;;;;;4937106;29;20210;-78
2022/04/29 04:47:11;;;;;;;48.07;29.77;;;;;;;;;;4940437;29;20309;-78
2022/04/29 04:49:38;;;;;;;52.33;30.40;;;;;;;;;;4934993;29;20758;-78
2022/04/29 04:52:06;;;;;;;48.67;31.13;;;;;;;;;;4947103;29;20644;-78
2022/04/29 04:54:33;;;;;;;52.97;30.63;;;;;;;;;;4942578;29;20298;-78
2022/04/29 04:57:00;;;;;;;51.50;30.20;;;;;;;;;;4937081;29;20777;-78
2022/04/29 04:59:27;;;;;;;49.90;29.77;;;;;;;;;;4934725;29;20280;-80
2022/04/29 05:01:54;;;;;;;50.27;31.03;;;;;;;;;;4939840;29;20241;-79
2022/04/29 05:04:23;;;;;;;52.40;31.07;;;;;;;;;;4937689;29;20291;-82
2022/04/29 05:06:50;;;;;;;56.53;31.77;;;;;;;;;;4935123;29;20258;-81
2022/04/29 05:09:17;;;;;;;55.77;31.13;;;;;;;;;;4946886;28;20320;-81
2022/04/29 05:11:45;;;;;;;54.20;30.63;;;;;;;;;;4948510;28;20296;-82
2022/04/29 05:14:13;;;;;;;55.97;29.27;;;;;;;;;;4953002;28;20210;-82
2022/04/29 05:16:40;;;;;;;53.37;29.97;;;;;;;;;;4952583;28;20268;-81
2022/04/29 05:19:07;;;;;;;52.73;30.27;;;;;;;;;;4954529;28;20252;-83
2022/04/29 05:21:36;;;;;;;49.80;30.50;;;;;;;;;;4953246;28;20701;-83
2022/04/29 05:24:03;;;;;;;54.97;30.70;;;;;;;;;;4951348;28;20292;-83
2022/04/29 05:26:30;;;;;;;51.87;30.93;;;;;;;;;;4951872;28;20324;-82
2022/04/29 05:28:58;;;;;;;55.37;31.30;;;;;;;;;;4950991;28;20255;-80
2022/04/29 05:31:25;;;;;;;49.17;30.53;;;;;;;;;;4951508;28;20238;-83
2022/04/29 05:33:52;;;;;;;46.33;29.03;;;;;;;;;;4950824;28;20397;-83
2022/04/29 05:36:20;;;;;;;52.63;30.50;;;;;;;;;;4949321;28;20242;-79
2022/04/29 05:44:18;;;;;;;50.53;28.37;;;;;;;;;;4949126;28;20241;-83
2022/04/29 05:46:45;;;;;;;48.57;29.17;;;;;;;;;;4933840;28;20314;-82
2022/04/29 05:49:12;;;;;;;44.63;27.90;;;;;;;;;;4941445;28;20203;-82
2022/04/29 05:51:39;;;;;;;46.60;28.87;;;;;;;;;;4939228;29;20238;-82
2022/04/29 05:54:09;;;;;;;43.63;27.90;;;;;;;;;;4937301;29;20290;-82
2022/04/29 05:56:36;;;;;;;38.63;26.13;;;;;;;;;;4950250;29;20199;-79
2022/04/29 05:59:03;;;;;;;39.97;27.47;;;;;;;;;;4950120;28;20311;-82
2022/04/29 06:01:31;;;;;;;35.80;24.67;;;;;;;;;;4950829;28;20286;-82
2022/04/29 06:03:58;;;;;;;34.57;24.83;;;;;;;;;;4950542;29;20199;-82
2022/04/29 06:06:25;;;;;;;35.97;24.60;;;;;;;;;;4949297;29;20765;-82
2022/04/29 06:08:53;;;;;;;37.27;24.50;;;;;;;;;;4949494;28;20682;-83
2022/04/29 06:11:21;;;;;;;32.93;23.63;;;;;;;;;;4940246;29;20214;-82
2022/04/29 06:13:50;;;;;;;37.13;24.23;;;;;;;;;;4950976;29;20230;-82
2022/04/29 06:16:18;;;;;;;36.83;23.97;;;;;;;;;;4949367;29;20235;-82
2022/04/29 06:18:45;;;;;;;32.50;23.67;;;;;;;;;;4949961;29;20199;-83
2022/04/29 06:21:13;;;;;;;35.60;23.30;;;;;;;;;;4947858;29;20203;-82
2022/04/29 06:23:40;;;;;;;34.77;24.13;;;;;;;;;;4953434;28;20707;-82
2022/04/29 06:26:07;;;;;;;37.13;24.17;;;;;;;;;;4953535;29;20254;-83
2022/04/29 06:28:36;;;;;;;39.17;25.17;;;;;;;;;;4953655;29;20242;-82
2022/04/29 06:31:03;;;;;;;38.17;24.87;;;;;;;;;;4948974;29;20203;-82
2022/04/29 06:33:31;;;;;;;36.87;24.67;;;;;;;;;;4953232;29;20286;-82
2022/04/29 06:35:59;;;;;;;32.40;23.53;;;;;;;;;;4951323;29;20206;-81
2022/04/29 06:38:27;;;;;;;34.97;25.07;;;;;;;;;;4952766;29;20270;-81
2022/04/29 06:40:55;;;;;;;33.17;23.93;;;;;;;;;;4952191;29;20208;-82
2022/04/29 06:43:22;;;;;;;33.93;24.47;;;;;;;;;;4950615;29;20210;-82
2022/04/29 06:45:51;;;;;;;34.60;23.87;;;;;;;;;;4947934;29;20671;-82
2022/04/29 06:48:19;;;;;;;34.53;23.83;;;;;;;;;;4947529;29;20286;-82
2022/04/29 06:50:46;;;;;;;33.50;24.40;;;;;;;;;;4950000;28;20213;-82
2022/04/29 06:53:13;;;;;;;37.20;25.43;;;;;;;;;;4953283;29;20702;-82
2022/04/29 06:55:41;;;;;;;35.73;24.17;;;;;;;;;;4954337;29;20233;-82
2022/04/29 06:58:08;;;;;;;31.53;23.83;;;;;;;;;;4953560;29;20250;-82
2022/04/29 07:00:36;;;;;;;33.53;24.37;;;;;;;;;;4953653;29;20286;-81
2022/04/29 07:03:05;;;;;;;34.53;25.03;;;;;;;;;;4949858;29;20209;-83
2022/04/29 07:05:32;;;;;;;31.70;23.98;;;;;;;;;;4953303;29;20207;-83
2022/04/29 07:08:00;;;;;;;32.33;24.98;;;;;;;;;;4951620;28;20317;-83
2022/04/29 07:10:27;;;;;;;35.75;25.00;;;;;;;;;;4950576;29;20262;-83
2022/04/29 07:12:54;;;;;;;35.65;24.42;;;;;;;;;;4953646;29;20253;-79
2022/04/29 07:15:22;;;;;;;35.85;25.23;;;;;;;;;;4954149;29;20243;-78
2022/04/29 07:17:49;;;;;;;32.13;25.08;;;;;;;;;;4954006;29;20674;-79
2022/04/29 07:20:18;;;;;;;34.90;25.30;;;;;;;;;;4953132;29;20210;-79
2022/04/29 07:22:45;;;;;;;42.63;26.43;;;;;;;;;;4946548;29;20237;-79
2022/04/29 07:25:13;;;;;;;36.90;25.20;;;;;;;;;;4952692;28;20255;-78
2022/04/29 07:27:40;;;;;;;37.08;24.65;;;;;;;;;;4950191;28;20318;-79
2022/04/29 07:30:10;;;;;;;31.60;24.45;;;;;;;;;;4953855;29;20587;-79
2022/04/29 07:32:37;;;;;;;32.45;24.70;;;;;;;;;;4952678;29;20258;-79
2022/04/29 07:43:21;;;;;;;31.75;24.83;;;;;;;;;;4944346;29;20376;-79
2022/04/29 07:45:51;;;;;;;30.13;24.38;;;;;;;;;;4950609;28;20207;-79
2022/04/29 07:48:18;;;;;;;31.50;24.80;;;;;;;;;;4951644;29;20227;-79
2022/04/29 07:50:45;;;;;;;29.25;23.67;;;;;;;;;;4952245;28;20206;-79
2022/04/29 07:53:14;;;;;;;29.75;23.55;;;;;;;;;;4949799;28;20675;-79
2022/04/29 07:55:41;;;;;;;30.83;23.63;;;;;;;;;;4947716;28;20553;-79
2022/04/29 07:58:09;;;;;;;29.70;24.00;;;;;;;;;;4953559;28;20873;-79
2022/04/29 08:00:37;;;;;;;29.80;24.45;;;;;;;;;;4946562;28;20582;-76
2022/04/29 08:03:04;;;;;;;30.65;24.13;;;;;;;;;;4950952;28;20255;-77
2022/04/29 08:05:32;;;;;;;31.08;23.60;;;;;;;;;;4954198;28;20229;-77
2022/04/29 08:08:00;;;;;;;29.02;24.23;;;;;;;;;;4951501;28;20410;-76
2022/04/29 08:10:29;;;;;;;33.20;24.45;;;;;;;;;;4952030;28;20211;-77
2022/04/29 08:12:57;;;;;;;33.72;24.95;;;;;;;;;;4955061;28;20679;-75
2022/04/29 08:15:25;;;;;;;31.80;24.52;;;;;;;;;;4955299;28;20213;-75
2022/04/29 08:17:52;;;;;;;32.67;24.98;;;;;;;;;;4953112;28;20287;-76
2022/04/29 08:20:19;;;;;;;31.63;25.55;;;;;;;;;;4957206;28;20263;-77
2022/04/29 08:22:47;;;;;;;31.70;25.30;;;;;;;;;;4952552;29;20286;-76
2022/04/29 08:25:15;;;;;;;30.63;24.20;;;;;;;;;;4952291;29;20651;-75
2022/04/29 08:27:44;;;;;;;33.97;24.45;;;;;;;;;;4952088;29;20231;-75
2022/04/29 08:30:11;;;;;;;33.10;25.85;;;;;;;;;;4950903;28;20623;-77
2022/04/29 08:32:39;;;;;;;31.05;24.70;;;;;;;;;;4949582;28;20290;-77
2022/04/29 08:35:07;;;;;;;33.60;24.65;;;;;;;;;;4948154;29;20258;-78
2022/04/29 08:37:34;;;;;;;32.63;24.83;;;;;;;;;;4952015;29;20203;-78
2022/04/29 08:40:01;;;;;;;33.05;25.92;;;;;;;;;;4951576;29;20234;-77
2022/04/29 08:42:29;;;;;;;31.63;25.33;;;;;;;;;;4951464;29;20971;-78
2022/04/29 08:44:59;;;;;;;29.77;24.65;;;;;;;;;;4948313;28;20204;-77
2022/04/29 08:47:26;;;;;;;31.83;24.98;;;;;;;;;;4953630;28;20223;-78
2022/04/29 08:49:55;;;;;;;33.38;25.45;;;;;;;;;;4950994;28;20234;-77
2022/04/29 08:52:22;;;;;;;30.40;25.02;;;;;;;;;;4946690;28;20282;-77
2022/04/29 09:00:26;;;;;;;30.20;26.55;;;;;;;;;;4891364;29;20285;-76
2022/04/29 09:02:54;;;;;;;32.42;26.83;;;;;;;;;;4876048;29;20241;-77
2022/04/29 09:05:21;;;;;;;31.05;24.70;;;;;;;;;;4876310;29;20205;-77
2022/04/29 09:07:55;;;;;;;31.55;25.90;;;;;;;;;;4875967;29;20276;-77
2022/04/29 09:10:22;;;;;;;30.48;24.77;;;;;;;;;;4892767;29;20236;-77
2022/04/29 09:12:50;;;;;;;33.38;24.48;;;;;;;;;;4896905;29;20206;-78
2022/04/29 09:15:18;;;;;;;29.52;25.25;;;;;;;;;;4901307;29;20229;-77
2022/04/29 09:17:47;;;;;;;32.70;25.25;;;;;;;;;;4900018;29;20203;-77
2022/04/29 09:20:16;;;;;;;28.25;23.92;;;;;;;;;;4898282;29;20295;-78
2022/04/29 09:22:46;;;;;;;27.25;23.80;;;;;;;;;;4901333;29;20317;-77
2022/04/29 09:25:14;;;;;;;30.00;23.90;;;;;;;;;;4904583;29;20207;-77
2022/04/29 09:27:56;;;;;;;31.23;24.50;;;;;;;;;;4904406;29;20307;-77
2022/04/29 09:30:32;;;;;;;27.65;24.65;;;;;;;;;;4901503;29;20208;-77
2022/04/29 09:33:01;;;;;;;31.00;24.30;;;;;;;;;;4891185;29;20295;-77
2022/04/29 09:35:41;;;;;;;31.05;24.13;;;;;;;;;;4958022;28;20258;-77
2022/04/29 09:40:54;;;;;;;29.17;23.20;;;;;;;;;;4951668;28;20201;-77
2022/04/29 09:43:48;;;;;;;28.38;24.10;;;;;;;;;;4942404;29;20266;-77
2022/04/29 09:46:24;;;;;;;27.80;23.95;;;;;;;;;;4874188;29;20333;-77
2022/04/29 09:49:00;;;;;;;28.83;22.95;;;;;;;;;;4873952;29;20651;-77
2022/04/29 09:51:43;;;;;;;30.58;23.73;;;;;;;;;;4875384;29;20267;-77
2022/04/29 09:54:11;;;;;;;26.58;23.10;;;;;;;;;;4875114;29;20828;-77
2022/04/29 09:56:39;;;;;;;29.23;23.85;;;;;;;;;;4875630;29;20213;-79
2022/04/29 09:59:07;;;;;;;27.08;24.00;;;;;;;;;;4878751;29;20229;-78
2022/04/29 10:01:34;;;;;;;28.05;23.35;;;;;;;;;;4878983;29;20289;-79
2022/04/29 10:04:03;;;;;;;28.52;23.65;;;;;;;;;;4879727;29;20240;-79
2022/04/29 10:06:30;;;;;;;26.63;23.77;;;;;;;;;;4879155;29;20777;-79
2022/04/29 10:08:59;;;;;;;25.10;22.40;;;;;;;;;;4878749;29;20321;-79
2022/04/29 10:11:27;;;;;;;30.67;24.88;;;;;;;;;;4879440;29;20247;-79
2022/04/29 10:13:55;;;;;;;26.75;23.42;;;;;;;;;;4879099;29;20241;-79
2022/04/29 10:16:23;;;;;;;26.40;23.50;;;;;;;;;;4879422;29;20208;-79
2022/04/29 10:21:42;;;;;;;26.45;23.55;;;;;;;;;;4905989;29;20674;-79
2022/04/29 10:24:09;;;;;;;26.20;22.00;;;;;;;;;;4936683;29;20246;-77
2022/04/29 10:26:36;;;;;;;24.20;20.73;;;;;;;;;;4947384;29;20286;-77
2022/04/29 10:29:04;;;;;;;30.52;23.98;;;;;;;;;;4946820;29;20251;-77
2022/04/29 10:31:31;;;;;;;27.23;23.27;;;;;;;;;;4945183;29;20234;-77
2022/04/29 10:34:27;;;;;;;27.23;24.15;;;;;;;;;;4947935;29;20283;-77
2022/04/29 10:36:55;;;;;;;26.75;23.23;;;;;;;;;;4950067;29;20235;-77
2022/04/29 10:39:23;;;;;;;27.08;24.25;;;;;;;;;;4947864;29;20234;-77
2022/04/29 10:42:04;;;;;;;27.98;21.75;;;;;;;;;;4945348;29;20809;-77
2022/04/29 10:44:31;;;;;;;27.48;23.08;;;;;;;;;;4946606;29;20259;-77
2022/04/29 10:47:25;;;;;;;28.23;22.45;;;;;;;;;;4945199;29;20235;-77
2022/04/29 10:49:52;;;;;;;32.75;23.08;;;;;;;;;;4949051;29;20210;-77
2022/04/29 10:52:27;;;;;;;28.10;24.02;;;;;;;;;;4951253;29;20222;-78
2022/04/29 10:54:57;;;;;;;27.35;23.08;;;;;;;;;;4949202;29;20235;-77
2022/04/29 10:57:37;;;;;;;27.92;23.58;;;;;;;;;;4946122;29;20231;-77
2022/04/29 11:00:09;;;;;;;32.55;24.27;;;;;;;;;;4950514;29;20203;-77
2022/04/29 11:02:37;;;;;;;25.83;22.95;;;;;;;;;;4953044;29;20265;-77
2022/04/29 11:05:04;;;;;;;29.77;22.95;;;;;;;;;;4952815;29;20230;-78
2022/04/29 11:07:46;;;;;;;25.52;22.67;;;;;;;;;;4948189;28;20310;-77
2022/04/29 11:10:18;;;;;;;28.88;24.17;;;;;;;;;;4948493;29;20297;-79
2022/04/29 11:13:00;;;;;;;26.98;21.95;;;;;;;;;;4955317;29;20207;-79
2022/04/29 11:15:44;;;;;;;27.60;23.58;;;;;;;;;;4935810;29;20207;-79
2022/04/29 11:18:15;;;;;;;28.45;24.23;;;;;;;;;;4937142;29;20513;-79
2022/04/29 11:20:43;;;;;;;26.95;24.20;;;;;;;;;;4943012;29;20657;-79
2022/04/29 11:25:57;;;;;;;29.60;25.02;;;;;;;;;;4955844;29;20210;-79
2022/04/29 11:28:25;;;;;;;29.90;25.10;;;;;;;;;;4951633;28;20223;-79
2022/04/29 11:30:59;;;;;;;27.50;24.23;;;;;;;;;;4947185;29;20203;-79
2022/04/29 11:33:27;;;;;;;28.38;24.08;;;;;;;;;;4949533;29;20202;-79
2022/04/29 11:35:57;;;;;;;28.75;24.25;;;;;;;;;;4955777;28;20293;-79
2022/04/29 11:38:25;;;;;;;28.98;24.45;;;;;;;;;;4948745;28;20195;-79
2022/04/29 11:40:53;;;;;;;28.33;25.33;;;;;;;;;;4956496;29;20207;-79
2022/04/29 11:43:23;;;;;;;29.15;24.83;;;;;;;;;;4954689;29;20195;-79
2022/04/29 11:46:00;;;;;;;26.63;23.23;;;;;;;;;;4955835;29;20238;-79
2022/04/29 11:48:27;;;;;;;28.15;24.65;;;;;;;;;;4954075;29;20323;-79
2022/04/29 11:50:58;;;;;;;27.30;24.15;;;;;;;;;;4949411;29;20688;-79
2022/04/29 11:53:27;;;;;;;24.70;22.10;;;;;;;;;;4945783;29;20203;-79
2022/04/29 11:55:54;;;;;;;25.52;22.77;;;;;;;;;;4955825;29;20230;-79
2022/04/29 11:58:22;;;;;;;25.15;21.88;;;;;;;;;;4955622;29;20270;-79
2022/04/29 12:00:50;;;;;;;26.02;22.25;;;;;;;;;;4950881;29;20719;-79
2022/04/29 12:03:20;;;;;;;25.92;20.48;;;;;;;;;;4936290;29;20207;-79
2022/04/29 12:05:47;;;;;;;23.02;20.08;;;;;;;;;;4954026;29;20291;-79
2022/04/29 12:08:14;;;;;;;23.38;20.83;;;;;;;;;;4948508;29;20271;-79
2022/04/29 12:10:45;;;;;;;23.17;20.80;;;;;;;;;;4935469;29;20676;-79
2022/04/29 12:13:12;;;;;;;21.98;18.92;;;;;;;;;;4952776;28;20206;-79
2022/04/29 12:15:41;;;;;;;20.90;18.42;;;;;;;;;;4954800;29;20262;-79
2022/04/29 12:18:10;;;;;;;21.45;19.15;;;;;;;;;;4955478;28;20876;-79
2022/04/29 12:20:38;;;;;;;24.45;18.55;;;;;;;;;;4939577;29;20277;-79
2022/04/29 12:23:14;;;;;;;22.45;18.67;;;;;;;;;;4941953;29;20211;-79
2022/04/29 12:25:45;;;;;;;19.83;17.50;;;;;;;;;;4935671;29;20254;-79
2022/04/29 12:28:16;;;;;;;22.10;18.90;;;;;;;;;;4936095;29;20614;-79
2022/04/29 12:36:46;;;;;;;22.88;18.38;;;;;;;;;;4948438;29;20198;-79
2022/04/29 12:39:13;;;;;;;19.42;17.38;;;;;;;;;;4950775;29;20204;-79
2022/04/29 12:41:41;;;;;;;22.95;16.38;;;;;;;;;;4935549;29;20294;-79
2022/04/29 12:44:11;;;;;;;18.38;16.33;;;;;;;;;;4935983;29;20278;-79
2022/04/29 12:46:38;;;;;;;20.90;15.43;;;;;;;;;;4935785;29;20259;-79
2022/04/29 12:49:05;;;;;;;19.08;15.82;;;;;;;;;;4935236;29;20270;-78
2022/04/29 12:51:33;;;;;;;19.77;15.65;;;;;;;;;;4942351;29;20207;-79
2022/04/29 12:54:01;;;;;;;19.55;16.80;;;;;;;;;;4954368;29;20203;-79
2022/04/29 12:56:29;;;;;;;18.38;16.10;;;;;;;;;;4954776;29;20231;-79
2022/04/29 12:58:57;;;;;;;18.80;16.38;;;;;;;;;;4954371;29;20238;-79
2022/04/29 13:01:25;;;;;;;18.35;14.93;;;;;;;;;;4939936;29;20235;-79
2022/04/29 13:03:54;;;;;;;16.50;14.60;;;;;;;;;;4934932;29;20587;-79
2022/04/29 13:06:21;;;;;;;16.35;14.65;;;;;;;;;;4953727;28;20229;-79
2022/04/29 13:08:54;;;;;;;21.00;15.63;;;;;;;;;;4953538;28;20326;-79
2022/04/29 13:11:23;;;;;;;17.15;15.35;;;;;;;;;;4954407;28;20295;-79
2022/04/29 13:13:50;;;;;;;16.75;14.52;;;;;;;;;;4953609;29;20671;-79
2022/04/29 13:16:17;;;;;;;14.10;12.60;;;;;;;;;;4953589;29;20743;-79
2022/04/29 13:18:46;;;;;;;17.80;15.57;;;;;;;;;;4954648;29;20215;-79
2022/04/29 13:21:13;;;;;;;19.02;14.38;;;;;;;;;;4953485;29;20203;-80
2022/04/29 13:23:41;;;;;;;17.67;14.02;;;;;;;;;;4953259;29;20230;-79
2022/04/29 13:26:09;;;;;;;13.93;12.27;;;;;;;;;;4953519;29;20254;-79
2022/04/29 13:28:37;;;;;;;15.63;13.27;;;;;;;;;;4953599;28;20633;-79
2022/04/29 13:31:05;;;;;;;16.27;14.50;;;;;;;;;;4953849;28;20210;-79
2022/04/29 13:33:33;;;;;;;17.92;14.23;;;;;;;;;;4952936;28;20238;-79
2022/04/29 13:36:02;;;;;;;18.42;14.02;;;;;;;;;;4953792;28;20206;-79
2022/04/29 13:38:29;;;;;;;19.08;15.73;;;;;;;;;;4951021;28;20258;-79
2022/04/29 13:40:56;;;;;;;17.20;15.07;;;;;;;;;;4948012;29;20286;-79
2022/04/29 13:43:23;;;;;;;16.75;13.80;;;;;;;;;;4952970;28;20226;-79
2022/04/29 13:45:50;;;;;;;14.15;12.65;;;;;;;;;;4953762;28;20214;-79
2022/04/29 13:48:18;;;;;;;15.95;13.55;;;;;;;;;;4953324;28;20289;-79
2022/04/29 13:50:45;;;;;;;13.55;12.02;;;;;;;;;;4954196;29;20207;-79
2022/04/29 13:53:14;;;;;;;14.13;11.70;;;;;;;;;;4953270;29;20212;-79
2022/04/29 13:55:42;;;;;;;13.75;12.00;;;;;;;;;;4952991;28;20569;-80
2022/04/29 13:58:10;;;;;;;14.27;12.52;;;;;;;;;;4953787;29;20239;-80
2022/04/29 14:00:38;;;;;;;14.00;12.50;;;;;;;;;;4953421;28;20230;-80
2022/04/29 14:03:05;;;;;;;15.98;14.23;;;;;;;;;;4953638;28;20285;-80
2022/04/29 14:05:32;;;;;;;16.92;13.75;;;;;;;;;;4954045;29;20234;-80
2022/04/29 14:07:59;;;;;;;18.35;14.25;;;;;;;;;;4952479;29;20262;-80
2022/04/29 14:10:28;;;;;;;15.80;13.75;;;;;;;;;;4953581;28;20238;-79
2022/04/29 14:12:55;;;;;;;16.65;13.43;;;;;;;;;;4953597;29;20254;-80
2022/04/29 14:15:22;;;;;;;18.25;14.32;;;;;;;;;;4951798;29;20230;-80
2022/04/29 14:17:50;;;;;;;18.40;14.13;;;;;;;;;;4947174;29;20298;-80
2022/04/29 14:20:17;;;;;;;16.80;12.63;;;;;;;;;;4950163;29;20242;-80
2022/04/29 14:22:47;;;;;;;17.38;12.95;;;;;;;;;;4953477;28;20298;-78
2022/04/29 14:25:15;;;;;;;14.95;11.13;;;;;;;;;;4941380;28;20211;-80
2022/04/29 14:27:45;;;;;;;15.30;12.65;;;;;;;;;;4941831;29;20363;-80
2022/04/29 14:30:13;;;;;;;16.38;13.32;;;;;;;;;;4941767;29;20231;-80
2022/04/29 14:32:41;;;;;;;12.38;11.18;;;;;;;;;;4940147;29;20282;-79
2022/04/29 14:35:10;;;;;;;17.60;13.05;;;;;;;;;;4953324;29;20294;-79
2022/04/29 14:37:37;;;;;;;15.52;10.85;;;;;;;;;;4952857;28;20242;-79
2022/04/29 14:40:04;;;;;;;13.15;11.75;;;;;;;;;;4956374;28;20286;-80
2022/04/29 14:42:32;;;;;;;14.63;10.93;;;;;;;;;;4946964;28;20196;-80
2022/04/29 14:45:02;;;;;;;14.63;10.80;;;;;;;;;;4945740;29;20659;-80
2022/04/29 14:47:30;;;;;;;13.98;11.50;;;;;;;;;;4953276;28;20207;-80
2022/04/29 14:49:57;;;;;;;11.85;10.48;;;;;;;;;;4939909;29;20715;-80
2022/04/29 14:52:24;;;;;;;12.93;11.50;;;;;;;;;;4946259;28;20204;-79
2022/04/29 14:54:52;;;;;;;13.75;11.95;;;;;;;;;;4944850;29;20286;-80
2022/04/29 14:57:19;;;;;;;13.15;11.57;;;;;;;;;;4945079;28;20706;-79